sensor_id;sensor_type;location;lat;lon;timestamp;P1;durP1;ratioP1;P2;durP2;ratioP2
26977;SDS011;56314;48.088;11.642;2022-08-19T00:01:19;6.60;;;6.00;;
26977;SDS011;56314;48.088;11.642;2022-08-19T00:03:45;6.55;;;5.15;;
26977;SDS011;56314;48.088;11.642;2022-08-19T00:06:10;6.30;;;5.70;;
26977;SDS011;56314;48.088;11.642;2022-08-19T00:08:36;5.40;;;4.90;;
26977;SDS011;56314;48.088;11.642;2022-08-19T00:11:01;5.50;;;5.00;;
26977;SDS011;56314;48.088;11.642;2022-08-19T00:13:26;5.10;;;4.60;;
26977;SDS011;56314;48.088;11.642;2022-08-19T00:15:53;5.45;;;4.30;;
26977;SDS011;56314;48.088;11.642;2022-08-19T00:18:19;5.25;;;4.80;;
26977;SDS011;56314;48.088;11.642;2022-08-19T00:20:45;6.22;;;4.55;;
26977;SDS011;56314;48.088;11.642;2022-08-19T00:23:10;5.28;;;4.65;;
26977;SDS011;56314;48.088;11.642;2022-08-19T00:25:35;5.97;;;4.28;;
26977;SDS011;56314;48.088;11.642;2022-08-19T00:28:01;5.05;;;4.65;;
26977;SDS011;56314;48.088;11.642;2022-08-19T00:30:27;6.13;;;4.80;;
26977;SDS011;56314;48.088;11.642;2022-08-19T00:32:53;5.68;;;5.10;;
26977;SDS011;56314;48.088;11.642;2022-08-19T00:35:22;4.43;;;4.03;;
26977;SDS011;56314;48.088;11.642;2022-08-19T00:37:48;8.02;;;5.85;;
26977;SDS011;56314;48.088;11.642;2022-08-19T00:40:15;6.47;;;5.25;;
26977;SDS011;56314;48.088;11.642;2022-08-19T00:42:42;6.63;;;4.60;;
26977;SDS011;56314;48.088;11.642;2022-08-19T00:45:13;5.78;;;5.25;;
26977;SDS011;56314;48.088;11.642;2022-08-19T00:47:42;6.03;;;5.43;;
26977;SDS011;56314;48.088;11.642;2022-08-19T00:50:08;6.05;;;5.13;;
26977;SDS011;56314;48.088;11.642;2022-08-19T00:52:36;5.90;;;5.40;;
26977;SDS011;56314;48.088;11.642;2022-08-19T00:55:07;5.65;;;5.15;;
26977;SDS011;56314;48.088;11.642;2022-08-19T00:57:38;6.20;;;5.57;;
26977;SDS011;56314;48.088;11.642;2022-08-19T01:00:09;6.65;;;6.03;;
26977;SDS011;56314;48.088;11.642;2022-08-19T01:02:38;5.93;;;5.35;;
26977;SDS011;56314;48.088;11.642;2022-08-19T01:05:05;6.90;;;6.20;;
26977;SDS011;56314;48.088;11.642;2022-08-19T01:07:33;7.97;;;6.40;;
26977;SDS011;56314;48.088;11.642;2022-08-19T01:09:59;7.60;;;6.90;;
26977;SDS011;56314;48.088;11.642;2022-08-19T01:12:25;8.40;;;7.50;;
26977;SDS011;56314;48.088;11.642;2022-08-19T01:14:50;7.80;;;7.00;;
26977;SDS011;56314;48.088;11.642;2022-08-19T01:17:17;8.23;;;7.25;;
26977;SDS011;56314;48.088;11.642;2022-08-19T01:19:44;7.47;;;6.63;;
26977;SDS011;56314;48.088;11.642;2022-08-19T01:22:46;7.55;;;6.80;;
26977;SDS011;56314;48.088;11.642;2022-08-19T01:25:31;7.47;;;6.63;;
26977;SDS011;56314;48.088;11.642;2022-08-19T01:28:01;6.93;;;6.22;;
26977;SDS011;56314;48.088;11.642;2022-08-19T01:30:29;7.38;;;6.60;;
26977;SDS011;56314;48.088;11.642;2022-08-19T01:32:58;7.00;;;6.30;;
26977;SDS011;56314;48.088;11.642;2022-08-19T01:35:25;6.65;;;6.05;;
26977;SDS011;56314;48.088;11.642;2022-08-19T01:37:56;6.80;;;5.82;;
26977;SDS011;56314;48.088;11.642;2022-08-19T01:40:30;6.45;;;5.55;;
26977;SDS011;56314;48.088;11.642;2022-08-19T01:42:58;6.00;;;5.45;;
26977;SDS011;56314;48.088;11.642;2022-08-19T01:45:25;6.45;;;5.72;;
26977;SDS011;56314;48.088;11.642;2022-08-19T01:47:53;5.40;;;4.90;;
26977;SDS011;56314;48.088;11.642;2022-08-19T01:50:19;6.20;;;5.60;;
26977;SDS011;56314;48.088;11.642;2022-08-19T01:52:44;5.47;;;4.97;;
26977;SDS011;56314;48.088;11.642;2022-08-19T01:55:12;5.80;;;5.20;;
26977;SDS011;56314;48.088;11.642;2022-08-19T01:57:40;6.82;;;5.15;;
26977;SDS011;56314;48.088;11.642;2022-08-19T02:00:11;5.55;;;5.05;;
26977;SDS011;56314;48.088;11.642;2022-08-19T02:02:40;6.00;;;4.85;;
26977;SDS011;56314;48.088;11.642;2022-08-19T02:05:05;6.18;;;5.57;;
26977;SDS011;56314;48.088;11.642;2022-08-19T02:07:33;5.90;;;5.30;;
26977;SDS011;56314;48.088;11.642;2022-08-19T02:10:00;5.55;;;5.05;;
26977;SDS011;56314;48.088;11.642;2022-08-19T02:12:32;5.88;;;5.28;;
26977;SDS011;56314;48.088;11.642;2022-08-19T02:14:58;6.03;;;5.10;;
26977;SDS011;56314;48.088;11.642;2022-08-19T02:17:24;7.40;;;5.88;;
26977;SDS011;56314;48.088;11.642;2022-08-19T02:19:49;5.03;;;4.53;;
26977;SDS011;56314;48.088;11.642;2022-08-19T02:22:15;5.32;;;4.82;;
26977;SDS011;56314;48.088;11.642;2022-08-19T02:24:40;5.82;;;5.03;;
26977;SDS011;56314;48.088;11.642;2022-08-19T02:27:05;5.20;;;4.80;;
26977;SDS011;56314;48.088;11.642;2022-08-19T02:29:31;5.30;;;4.80;;
26977;SDS011;56314;48.088;11.642;2022-08-19T02:31:57;5.70;;;4.70;;
26977;SDS011;56314;48.088;11.642;2022-08-19T02:34:23;4.90;;;4.50;;
26977;SDS011;56314;48.088;11.642;2022-08-19T02:36:49;5.53;;;4.50;;
26977;SDS011;56314;48.088;11.642;2022-08-19T02:39:15;5.40;;;4.50;;
26977;SDS011;56314;48.088;11.642;2022-08-19T02:41:40;5.55;;;4.75;;
26977;SDS011;56314;48.088;11.642;2022-08-19T02:44:06;4.93;;;4.47;;
26977;SDS011;56314;48.088;11.642;2022-08-19T02:46:32;5.38;;;4.50;;
26977;SDS011;56314;48.088;11.642;2022-08-19T02:48:59;4.90;;;4.50;;
26977;SDS011;56314;48.088;11.642;2022-08-19T02:51:32;6.18;;;4.55;;
26977;SDS011;56314;48.088;11.642;2022-08-19T02:54:02;5.45;;;4.95;;
26977;SDS011;56314;48.088;11.642;2022-08-19T02:56:29;5.18;;;4.68;;
26977;SDS011;56314;48.088;11.642;2022-08-19T02:58:56;5.45;;;4.95;;
26977;SDS011;56314;48.088;11.642;2022-08-19T03:01:26;5.22;;;4.70;;
26977;SDS011;56314;48.088;11.642;2022-08-19T03:03:53;4.80;;;4.40;;
26977;SDS011;56314;48.088;11.642;2022-08-19T03:06:20;4.70;;;4.30;;
26977;SDS011;56314;48.088;11.642;2022-08-19T03:08:46;5.10;;;4.65;;
26977;SDS011;56314;48.088;11.642;2022-08-19T03:11:23;4.43;;;4.03;;
26977;SDS011;56314;48.088;11.642;2022-08-19T03:13:51;5.03;;;4.53;;
26977;SDS011;56314;48.088;11.642;2022-08-19T03:16:19;5.72;;;4.78;;
26977;SDS011;56314;48.088;11.642;2022-08-19T03:18:45;5.22;;;4.65;;
26977;SDS011;56314;48.088;11.642;2022-08-19T03:21:14;7.05;;;5.22;;
26977;SDS011;56314;48.088;11.642;2022-08-19T03:23:41;5.28;;;4.78;;
26977;SDS011;56314;48.088;11.642;2022-08-19T03:26:07;5.20;;;4.80;;
26977;SDS011;56314;48.088;11.642;2022-08-19T03:28:32;5.32;;;4.82;;
26977;SDS011;56314;48.088;11.642;2022-08-19T03:31:03;5.03;;;4.50;;
26977;SDS011;56314;48.088;11.642;2022-08-19T03:33:32;5.30;;;4.70;;
26977;SDS011;56314;48.088;11.642;2022-08-19T03:36:09;5.35;;;4.85;;
26977;SDS011;56314;48.088;11.642;2022-08-19T03:38:39;7.00;;;5.07;;
26977;SDS011;56314;48.088;11.642;2022-08-19T03:41:09;5.35;;;4.85;;
26977;SDS011;56314;48.088;11.642;2022-08-19T03:43:40;5.18;;;4.57;;
26977;SDS011;56314;48.088;11.642;2022-08-19T03:46:08;5.10;;;4.60;;
26977;SDS011;56314;48.088;11.642;2022-08-19T03:48:40;5.57;;;5.07;;
26977;SDS011;56314;48.088;11.642;2022-08-19T03:51:07;5.13;;;4.65;;
26977;SDS011;56314;48.088;11.642;2022-08-19T03:53:39;4.93;;;4.53;;
26977;SDS011;56314;48.088;11.642;2022-08-19T03:56:05;5.38;;;4.90;;
26977;SDS011;56314;48.088;11.642;2022-08-19T03:58:34;5.15;;;4.60;;
26977;SDS011;56314;48.088;11.642;2022-08-19T04:00:59;4.65;;;4.22;;
26977;SDS011;56314;48.088;11.642;2022-08-19T04:03:25;5.63;;;5.03;;
26977;SDS011;56314;48.088;11.642;2022-08-19T04:05:51;5.68;;;5.10;;
26977;SDS011;56314;48.088;11.642;2022-08-19T04:08:18;5.30;;;4.80;;
26977;SDS011;56314;48.088;11.642;2022-08-19T04:10:47;5.22;;;4.72;;
26977;SDS011;56314;48.088;11.642;2022-08-19T04:13:14;6.70;;;5.18;;
26977;SDS011;56314;48.088;11.642;2022-08-19T04:15:40;6.95;;;5.20;;
26977;SDS011;56314;48.088;11.642;2022-08-19T04:18:08;5.18;;;4.75;;
26977;SDS011;56314;48.088;11.642;2022-08-19T04:20:42;5.05;;;4.65;;
26977;SDS011;56314;48.088;11.642;2022-08-19T04:23:12;6.05;;;5.30;;
26977;SDS011;56314;48.088;11.642;2022-08-19T04:25:39;6.90;;;4.35;;
26977;SDS011;56314;48.088;11.642;2022-08-19T04:28:06;5.78;;;5.28;;
26977;SDS011;56314;48.088;11.642;2022-08-19T04:30:53;6.00;;;5.50;;
26977;SDS011;56314;48.088;11.642;2022-08-19T04:33:21;6.82;;;4.82;;
26977;SDS011;56314;48.088;11.642;2022-08-19T04:35:49;5.60;;;5.07;;
26977;SDS011;56314;48.088;11.642;2022-08-19T04:38:17;5.82;;;5.07;;
26977;SDS011;56314;48.088;11.642;2022-08-19T04:40:45;7.60;;;5.05;;
26977;SDS011;56314;48.088;11.642;2022-08-19T04:43:31;8.20;;;5.43;;
26977;SDS011;56314;48.088;11.642;2022-08-19T04:45:57;7.35;;;5.60;;
26977;SDS011;56314;48.088;11.642;2022-08-19T04:48:23;5.95;;;5.45;;
26977;SDS011;56314;48.088;11.642;2022-08-19T04:50:52;6.65;;;5.45;;
26977;SDS011;56314;48.088;11.642;2022-08-19T04:53:23;6.18;;;5.60;;
26977;SDS011;56314;48.088;11.642;2022-08-19T04:55:56;5.80;;;5.28;;
26977;SDS011;56314;48.088;11.642;2022-08-19T04:58:23;5.47;;;4.97;;
26977;SDS011;56314;48.088;11.642;2022-08-19T05:00:51;5.85;;;4.63;;
26977;SDS011;56314;48.088;11.642;2022-08-19T05:03:17;5.20;;;4.70;;
26977;SDS011;56314;48.088;11.642;2022-08-19T05:05:43;5.38;;;4.90;;
26977;SDS011;56314;48.088;11.642;2022-08-19T05:08:11;6.03;;;5.43;;
26977;SDS011;56314;48.088;11.642;2022-08-19T05:10:37;5.53;;;4.45;;
26977;SDS011;56314;48.088;11.642;2022-08-19T05:13:04;5.68;;;5.00;;
26977;SDS011;56314;48.088;11.642;2022-08-19T05:15:30;5.60;;;5.00;;
26977;SDS011;56314;48.088;11.642;2022-08-19T05:17:56;8.77;;;4.85;;
26977;SDS011;56314;48.088;11.642;2022-08-19T05:20:50;4.97;;;4.35;;
26977;SDS011;56314;48.088;11.642;2022-08-19T05:23:42;6.43;;;4.57;;
26977;SDS011;56314;48.088;11.642;2022-08-19T05:26:09;6.18;;;5.10;;
26977;SDS011;56314;48.088;11.642;2022-08-19T05:28:35;4.93;;;4.53;;
26977;SDS011;56314;48.088;11.642;2022-08-19T05:31:01;6.13;;;4.68;;
26977;SDS011;56314;48.088;11.642;2022-08-19T05:33:26;4.78;;;4.30;;
26977;SDS011;56314;48.088;11.642;2022-08-19T05:35:52;5.35;;;4.68;;
26977;SDS011;56314;48.088;11.642;2022-08-19T05:38:18;6.32;;;5.18;;
26977;SDS011;56314;48.088;11.642;2022-08-19T05:40:44;8.40;;;5.00;;
26977;SDS011;56314;48.088;11.642;2022-08-19T05:43:13;6.50;;;5.90;;
26977;SDS011;56314;48.088;11.642;2022-08-19T05:45:41;7.07;;;5.30;;
26977;SDS011;56314;48.088;11.642;2022-08-19T05:48:07;7.53;;;5.15;;
26977;SDS011;56314;48.088;11.642;2022-08-19T05:50:36;8.30;;;6.78;;
26977;SDS011;56314;48.088;11.642;2022-08-19T05:53:02;8.23;;;6.85;;
26977;SDS011;56314;48.088;11.642;2022-08-19T05:55:28;7.70;;;6.97;;
26977;SDS011;56314;48.088;11.642;2022-08-19T05:57:53;10.63;;;7.60;;
26977;SDS011;56314;48.088;11.642;2022-08-19T06:00:19;9.00;;;7.25;;
26977;SDS011;56314;48.088;11.642;2022-08-19T06:02:44;10.15;;;8.18;;
26977;SDS011;56314;48.088;11.642;2022-08-19T06:05:10;10.10;;;8.63;;
26977;SDS011;56314;48.088;11.642;2022-08-19T06:07:36;9.88;;;8.15;;
26977;SDS011;56314;48.088;11.642;2022-08-19T06:10:04;10.38;;;8.85;;
26977;SDS011;56314;48.088;11.642;2022-08-19T06:12:31;11.95;;;9.90;;
26977;SDS011;56314;48.088;11.642;2022-08-19T06:15:00;13.57;;;9.77;;
26977;SDS011;56314;48.088;11.642;2022-08-19T06:17:29;13.10;;;11.15;;
26977;SDS011;56314;48.088;11.642;2022-08-19T06:19:55;11.63;;;10.43;;
26977;SDS011;56314;48.088;11.642;2022-08-19T06:22:21;11.80;;;10.60;;
26977;SDS011;56314;48.088;11.642;2022-08-19T06:24:47;13.20;;;10.63;;
26977;SDS011;56314;48.088;11.642;2022-08-19T06:27:13;15.63;;;10.13;;
26977;SDS011;56314;48.088;11.642;2022-08-19T06:29:38;12.35;;;10.15;;
26977;SDS011;56314;48.088;11.642;2022-08-19T06:32:04;11.48;;;10.27;;
26977;SDS011;56314;48.088;11.642;2022-08-19T06:34:31;11.45;;;10.35;;
26977;SDS011;56314;48.088;11.642;2022-08-19T06:36:59;13.10;;;11.13;;
26977;SDS011;56314;48.088;11.642;2022-08-19T06:39:30;13.93;;;11.00;;
26977;SDS011;56314;48.088;11.642;2022-08-19T06:42:00;14.68;;;11.35;;
26977;SDS011;56314;48.088;11.642;2022-08-19T06:44:31;16.37;;;12.10;;
26977;SDS011;56314;48.088;11.642;2022-08-19T06:47:02;13.18;;;11.52;;
26977;SDS011;56314;48.088;11.642;2022-08-19T06:49:28;14.80;;;13.20;;
26977;SDS011;56314;48.088;11.642;2022-08-19T06:51:56;13.57;;;12.15;;
26977;SDS011;56314;48.088;11.642;2022-08-19T06:54:23;15.82;;;13.10;;
26977;SDS011;56314;48.088;11.642;2022-08-19T06:56:50;17.15;;;13.30;;
26977;SDS011;56314;48.088;11.642;2022-08-19T06:59:18;14.68;;;12.18;;
26977;SDS011;56314;48.088;11.642;2022-08-19T07:01:46;16.13;;;12.32;;
26977;SDS011;56314;48.088;11.642;2022-08-19T07:04:14;15.18;;;11.52;;
26977;SDS011;56314;48.088;11.642;2022-08-19T07:06:41;13.98;;;12.02;;
26977;SDS011;56314;48.088;11.642;2022-08-19T07:09:08;12.93;;;11.52;;
26977;SDS011;56314;48.088;11.642;2022-08-19T07:11:35;18.65;;;14.05;;
26977;SDS011;56314;48.088;11.642;2022-08-19T07:14:00;21.15;;;15.40;;
26977;SDS011;56314;48.088;11.642;2022-08-19T07:16:26;22.70;;;16.02;;
26977;SDS011;56314;48.088;11.642;2022-08-19T07:18:52;20.25;;;16.58;;
26977;SDS011;56314;48.088;11.642;2022-08-19T07:21:20;19.92;;;15.13;;
26977;SDS011;56314;48.088;11.642;2022-08-19T07:23:48;18.98;;;15.85;;
26977;SDS011;56314;48.088;11.642;2022-08-19T07:26:21;20.75;;;16.63;;
26977;SDS011;56314;48.088;11.642;2022-08-19T07:28:49;22.10;;;16.02;;
26977;SDS011;56314;48.088;11.642;2022-08-19T07:31:17;20.85;;;17.30;;
26977;SDS011;56314;48.088;11.642;2022-08-19T07:33:45;19.52;;;17.40;;
26977;SDS011;56314;48.088;11.642;2022-08-19T07:36:12;23.45;;;17.52;;
26977;SDS011;56314;48.088;11.642;2022-08-19T07:38:40;19.98;;;16.90;;
26977;SDS011;56314;48.088;11.642;2022-08-19T07:41:07;23.83;;;19.08;;
26977;SDS011;56314;48.088;11.642;2022-08-19T07:43:38;21.13;;;18.40;;
26977;SDS011;56314;48.088;11.642;2022-08-19T07:46:04;23.13;;;18.30;;
26977;SDS011;56314;48.088;11.642;2022-08-19T07:48:30;23.38;;;18.77;;
26977;SDS011;56314;48.088;11.642;2022-08-19T07:50:58;21.52;;;17.98;;
26977;SDS011;56314;48.088;11.642;2022-08-19T07:53:27;23.10;;;18.00;;
26977;SDS011;56314;48.088;11.642;2022-08-19T07:55:53;21.50;;;17.77;;
26977;SDS011;56314;48.088;11.642;2022-08-19T07:58:19;22.30;;;18.67;;
26977;SDS011;56314;48.088;11.642;2022-08-19T08:00:47;23.85;;;18.75;;
26977;SDS011;56314;48.088;11.642;2022-08-19T08:03:15;25.38;;;19.77;;
26977;SDS011;56314;48.088;11.642;2022-08-19T08:05:42;27.40;;;19.33;;
26977;SDS011;56314;48.088;11.642;2022-08-19T08:08:26;24.02;;;19.88;;
26977;SDS011;56314;48.088;11.642;2022-08-19T08:13:37;25.25;;;20.02;;
26977;SDS011;56314;48.088;11.642;2022-08-19T08:16:02;25.67;;;19.88;;
26977;SDS011;56314;48.088;11.642;2022-08-19T08:18:28;24.88;;;20.02;;
26977;SDS011;56314;48.088;11.642;2022-08-19T08:20:54;21.83;;;19.48;;
26977;SDS011;56314;48.088;11.642;2022-08-19T08:23:21;26.42;;;22.02;;
26977;SDS011;56314;48.088;11.642;2022-08-19T08:25:47;24.25;;;20.30;;
26977;SDS011;56314;48.088;11.642;2022-08-19T08:28:14;29.13;;;20.42;;
26977;SDS011;56314;48.088;11.642;2022-08-19T08:30:40;25.30;;;19.95;;
26977;SDS011;56314;48.088;11.642;2022-08-19T08:33:07;26.05;;;20.88;;
26977;SDS011;56314;48.088;11.642;2022-08-19T08:35:33;26.15;;;20.25;;
26977;SDS011;56314;48.088;11.642;2022-08-19T08:37:58;21.60;;;18.27;;
26977;SDS011;56314;48.088;11.642;2022-08-19T08:40:37;25.48;;;19.30;;
26977;SDS011;56314;48.088;11.642;2022-08-19T08:46:03;22.88;;;17.92;;
26977;SDS011;56314;48.088;11.642;2022-08-19T08:51:21;23.77;;;19.27;;
26977;SDS011;56314;48.088;11.642;2022-08-19T08:53:52;22.95;;;19.65;;
26977;SDS011;56314;48.088;11.642;2022-08-19T08:56:18;24.65;;;20.20;;
26977;SDS011;56314;48.088;11.642;2022-08-19T09:01:15;26.08;;;20.30;;
26977;SDS011;56314;48.088;11.642;2022-08-19T09:03:41;24.73;;;19.95;;
26977;SDS011;56314;48.088;11.642;2022-08-19T09:11:29;33.15;;;23.35;;
26977;SDS011;56314;48.088;11.642;2022-08-19T09:16:26;28.92;;;23.25;;
26977;SDS011;56314;48.088;11.642;2022-08-19T09:18:54;27.40;;;20.85;;
26977;SDS011;56314;48.088;11.642;2022-08-19T09:21:24;28.42;;;21.58;;
26977;SDS011;56314;48.088;11.642;2022-08-19T09:23:51;25.83;;;20.75;;
26977;SDS011;56314;48.088;11.642;2022-08-19T09:26:18;27.23;;;20.33;;
26977;SDS011;56314;48.088;11.642;2022-08-19T09:28:46;26.38;;;21.17;;
26977;SDS011;56314;48.088;11.642;2022-08-19T09:31:19;24.25;;;19.48;;
26977;SDS011;56314;48.088;11.642;2022-08-19T09:33:47;23.85;;;19.33;;
26977;SDS011;56314;48.088;11.642;2022-08-19T09:36:14;24.17;;;18.80;;
26977;SDS011;56314;48.088;11.642;2022-08-19T09:38:41;22.67;;;17.10;;
26977;SDS011;56314;48.088;11.642;2022-08-19T09:41:09;22.63;;;18.73;;
26977;SDS011;56314;48.088;11.642;2022-08-19T09:43:40;19.20;;;17.17;;
26977;SDS011;56314;48.088;11.642;2022-08-19T09:46:07;19.65;;;16.73;;
26977;SDS011;56314;48.088;11.642;2022-08-19T09:48:34;21.10;;;17.08;;
26977;SDS011;56314;48.088;11.642;2022-08-19T09:51:04;19.33;;;16.27;;
26977;SDS011;56314;48.088;11.642;2022-08-19T09:53:33;21.88;;;16.67;;
26977;SDS011;56314;48.088;11.642;2022-08-19T09:55:59;17.30;;;15.38;;
26977;SDS011;56314;48.088;11.642;2022-08-19T09:58:24;15.88;;;14.13;;
26977;SDS011;56314;48.088;11.642;2022-08-19T10:00:53;16.90;;;15.15;;
26977;SDS011;56314;48.088;11.642;2022-08-19T10:03:19;16.58;;;14.60;;
26977;SDS011;56314;48.088;11.642;2022-08-19T10:05:45;16.10;;;13.75;;
26977;SDS011;56314;48.088;11.642;2022-08-19T10:08:13;18.58;;;15.35;;
26977;SDS011;56314;48.088;11.642;2022-08-19T10:10:38;16.05;;;13.93;;
26977;SDS011;56314;48.088;11.642;2022-08-19T10:13:04;18.17;;;14.82;;
26977;SDS011;56314;48.088;11.642;2022-08-19T10:15:30;17.92;;;14.77;;
26977;SDS011;56314;48.088;11.642;2022-08-19T10:17:55;15.73;;;13.18;;
26977;SDS011;56314;48.088;11.642;2022-08-19T10:20:21;15.77;;;12.82;;
26977;SDS011;56314;48.088;11.642;2022-08-19T10:22:47;17.95;;;12.70;;
26977;SDS011;56314;48.088;11.642;2022-08-19T10:25:13;14.43;;;12.80;;
26977;SDS011;56314;48.088;11.642;2022-08-19T10:27:40;14.27;;;12.48;;
26977;SDS011;56314;48.088;11.642;2022-08-19T10:30:05;13.98;;;12.27;;
26977;SDS011;56314;48.088;11.642;2022-08-19T10:32:31;12.45;;;11.25;;
26977;SDS011;56314;48.088;11.642;2022-08-19T10:34:56;12.88;;;11.55;;
26977;SDS011;56314;48.088;11.642;2022-08-19T10:37:22;17.55;;;12.55;;
26977;SDS011;56314;48.088;11.642;2022-08-19T10:39:47;15.13;;;13.52;;
26977;SDS011;56314;48.088;11.642;2022-08-19T10:42:13;12.88;;;11.50;;
26977;SDS011;56314;48.088;11.642;2022-08-19T10:44:39;13.90;;;12.52;;
26977;SDS011;56314;48.088;11.642;2022-08-19T10:47:05;14.77;;;13.30;;
26977;SDS011;56314;48.088;11.642;2022-08-19T10:49:31;12.05;;;10.85;;
26977;SDS011;56314;48.088;11.642;2022-08-19T10:51:57;12.60;;;10.95;;
26977;SDS011;56314;48.088;11.642;2022-08-19T10:54:41;11.45;;;10.27;;
26977;SDS011;56314;48.088;11.642;2022-08-19T10:57:25;11.95;;;10.82;;
26977;SDS011;56314;48.088;11.642;2022-08-19T10:59:54;11.43;;;10.23;;
26977;SDS011;56314;48.088;11.642;2022-08-19T11:02:21;12.40;;;11.20;;
26977;SDS011;56314;48.088;11.642;2022-08-19T11:04:47;11.63;;;10.40;;
26977;SDS011;56314;48.088;11.642;2022-08-19T11:07:14;10.68;;;9.57;;
26977;SDS011;56314;48.088;11.642;2022-08-19T11:09:41;10.88;;;9.77;;
26977;SDS011;56314;48.088;11.642;2022-08-19T11:12:07;10.45;;;9.45;;
26977;SDS011;56314;48.088;11.642;2022-08-19T11:14:34;11.13;;;9.40;;
26977;SDS011;56314;48.088;11.642;2022-08-19T11:17:00;10.75;;;9.05;;
26977;SDS011;56314;48.088;11.642;2022-08-19T11:19:27;10.55;;;9.45;;
26977;SDS011;56314;48.088;11.642;2022-08-19T11:21:52;9.40;;;8.43;;
26977;SDS011;56314;48.088;11.642;2022-08-19T11:24:20;9.82;;;8.82;;
26977;SDS011;56314;48.088;11.642;2022-08-19T11:26:48;10.93;;;9.00;;
26977;SDS011;56314;48.088;11.642;2022-08-19T11:29:15;8.95;;;7.80;;
26977;SDS011;56314;48.088;11.642;2022-08-19T11:31:44;8.25;;;7.45;;
26977;SDS011;56314;48.088;11.642;2022-08-19T11:34:13;8.48;;;7.68;;
26977;SDS011;56314;48.088;11.642;2022-08-19T11:36:42;7.95;;;7.10;;
26977;SDS011;56314;48.088;11.642;2022-08-19T11:39:10;8.75;;;7.95;;
26977;SDS011;56314;48.088;11.642;2022-08-19T11:41:37;7.60;;;6.80;;
26977;SDS011;56314;48.088;11.642;2022-08-19T11:44:03;7.63;;;6.93;;
26977;SDS011;56314;48.088;11.642;2022-08-19T11:46:29;7.40;;;6.70;;
26977;SDS011;56314;48.088;11.642;2022-08-19T11:48:59;7.65;;;6.70;;
26977;SDS011;56314;48.088;11.642;2022-08-19T11:51:25;7.47;;;6.60;;
26977;SDS011;56314;48.088;11.642;2022-08-19T11:53:53;7.53;;;6.75;;
26977;SDS011;56314;48.088;11.642;2022-08-19T11:56:20;7.45;;;6.70;;
26977;SDS011;56314;48.088;11.642;2022-08-19T11:58:46;10.32;;;9.32;;
26977;SDS011;56314;48.088;11.642;2022-08-19T12:01:13;11.55;;;10.23;;
26977;SDS011;56314;48.088;11.642;2022-08-19T12:03:43;12.02;;;10.07;;
26977;SDS011;56314;48.088;11.642;2022-08-19T12:06:15;12.60;;;10.90;;
26977;SDS011;56314;48.088;11.642;2022-08-19T12:08:53;12.50;;;11.00;;
26977;SDS011;56314;48.088;11.642;2022-08-19T12:11:22;10.80;;;9.70;;
26977;SDS011;56314;48.088;11.642;2022-08-19T12:13:48;11.98;;;10.13;;
26977;SDS011;56314;48.088;11.642;2022-08-19T12:16:16;9.40;;;8.43;;
26977;SDS011;56314;48.088;11.642;2022-08-19T12:18:44;7.90;;;7.20;;
26977;SDS011;56314;48.088;11.642;2022-08-19T12:21:11;6.72;;;6.13;;
26977;SDS011;56314;48.088;11.642;2022-08-19T12:23:38;6.68;;;6.05;;
26977;SDS011;56314;48.088;11.642;2022-08-19T12:26:05;5.97;;;5.47;;
26977;SDS011;56314;48.088;11.642;2022-08-19T12:28:31;6.03;;;5.47;;
26977;SDS011;56314;48.088;11.642;2022-08-19T12:30:56;4.60;;;4.20;;
26977;SDS011;56314;48.088;11.642;2022-08-19T12:33:22;3.90;;;3.60;;
26977;SDS011;56314;48.088;11.642;2022-08-19T12:35:51;3.83;;;3.28;;
26977;SDS011;56314;48.088;11.642;2022-08-19T12:38:17;3.10;;;2.70;;
26977;SDS011;56314;48.088;11.642;2022-08-19T12:40:46;2.42;;;2.22;;
26977;SDS011;56314;48.088;11.642;2022-08-19T12:43:13;2.58;;;2.10;;
26977;SDS011;56314;48.088;11.642;2022-08-19T12:45:40;2.00;;;1.90;;
26977;SDS011;56314;48.088;11.642;2022-08-19T12:48:07;2.35;;;2.08;;
26977;SDS011;56314;48.088;11.642;2022-08-19T12:50:33;2.30;;;2.10;;
26977;SDS011;56314;48.088;11.642;2022-08-19T12:52:58;1.80;;;1.70;;
26977;SDS011;56314;48.088;11.642;2022-08-19T12:55:24;1.95;;;1.75;;
26977;SDS011;56314;48.088;11.642;2022-08-19T12:57:50;2.17;;;1.83;;
26977;SDS011;56314;48.088;11.642;2022-08-19T13:00:18;1.77;;;1.67;;
26977;SDS011;56314;48.088;11.642;2022-08-19T13:02:46;1.63;;;1.52;;
26977;SDS011;56314;48.088;11.642;2022-08-19T13:05:15;1.80;;;1.70;;
26977;SDS011;56314;48.088;11.642;2022-08-19T13:07:45;1.70;;;1.60;;
26977;SDS011;56314;48.088;11.642;2022-08-19T13:10:12;1.83;;;1.73;;
26977;SDS011;56314;48.088;11.642;2022-08-19T13:12:40;1.63;;;1.52;;
26977;SDS011;56314;48.088;11.642;2022-08-19T13:15:06;3.78;;;1.90;;
26977;SDS011;56314;48.088;11.642;2022-08-19T13:17:33;1.50;;;1.40;;
26977;SDS011;56314;48.088;11.642;2022-08-19T13:19:59;2.28;;;1.55;;
26977;SDS011;56314;48.088;11.642;2022-08-19T13:22:24;2.78;;;1.90;;
26977;SDS011;56314;48.088;11.642;2022-08-19T13:24:50;2.22;;;1.92;;
26977;SDS011;56314;48.088;11.642;2022-08-19T13:27:15;2.17;;;1.58;;
26977;SDS011;56314;48.088;11.642;2022-08-19T13:29:41;1.77;;;1.67;;
26977;SDS011;56314;48.088;11.642;2022-08-19T13:32:26;2.70;;;1.77;;
26977;SDS011;56314;48.088;11.642;2022-08-19T13:35:09;2.00;;;1.90;;
26977;SDS011;56314;48.088;11.642;2022-08-19T13:37:35;1.55;;;1.45;;
26977;SDS011;56314;48.088;11.642;2022-08-19T13:40:27;2.05;;;1.52;;
26977;SDS011;56314;48.088;11.642;2022-08-19T13:42:54;1.58;;;1.48;;
26977;SDS011;56314;48.088;11.642;2022-08-19T13:45:23;1.70;;;1.60;;
26977;SDS011;56314;48.088;11.642;2022-08-19T13:47:50;1.75;;;1.65;;
26977;SDS011;56314;48.088;11.642;2022-08-19T13:50:20;2.20;;;1.70;;
26977;SDS011;56314;48.088;11.642;2022-08-19T13:52:50;1.73;;;1.60;;
26977;SDS011;56314;48.088;11.642;2022-08-19T13:55:16;1.73;;;1.63;;
26977;SDS011;56314;48.088;11.642;2022-08-19T13:57:42;1.63;;;1.52;;
26977;SDS011;56314;48.088;11.642;2022-08-19T14:00:15;1.80;;;1.70;;
26977;SDS011;56314;48.088;11.642;2022-08-19T14:02:45;2.08;;;1.98;;
26977;SDS011;56314;48.088;11.642;2022-08-19T14:05:12;3.15;;;2.15;;
26977;SDS011;56314;48.088;11.642;2022-08-19T14:07:39;3.78;;;2.10;;
26977;SDS011;56314;48.088;11.642;2022-08-19T14:10:05;2.78;;;2.42;;
26977;SDS011;56314;48.088;11.642;2022-08-19T14:12:33;1.88;;;1.77;;
26977;SDS011;56314;48.088;11.642;2022-08-19T14:14:59;2.30;;;2.10;;
26977;SDS011;56314;48.088;11.642;2022-08-19T14:17:24;2.83;;;1.90;;
26977;SDS011;56314;48.088;11.642;2022-08-19T14:19:56;2.50;;;2.30;;
26977;SDS011;56314;48.088;11.642;2022-08-19T14:22:22;3.28;;;2.10;;
26977;SDS011;56314;48.088;11.642;2022-08-19T14:24:47;2.60;;;2.40;;
26977;SDS011;56314;48.088;11.642;2022-08-19T14:27:13;2.97;;;2.78;;
26977;SDS011;56314;48.088;11.642;2022-08-19T14:29:39;2.38;;;2.17;;
26977;SDS011;56314;48.088;11.642;2022-08-19T14:32:05;2.78;;;2.58;;
26977;SDS011;56314;48.088;11.642;2022-08-19T14:34:30;3.65;;;2.92;;
26977;SDS011;56314;48.088;11.642;2022-08-19T14:36:56;3.83;;;2.85;;
26977;SDS011;56314;48.088;11.642;2022-08-19T14:39:22;3.33;;;3.03;;
26977;SDS011;56314;48.088;11.642;2022-08-19T14:41:48;3.00;;;2.80;;
26977;SDS011;56314;48.088;11.642;2022-08-19T14:44:13;3.25;;;2.90;;
26977;SDS011;56314;48.088;11.642;2022-08-19T14:46:39;4.13;;;2.80;;
26977;SDS011;56314;48.088;11.642;2022-08-19T14:49:05;3.05;;;2.85;;